Purdon, Texas
Current Conditions -  °F | °C
As of 4:53 AM on Thursday 18 Dec 2014 (Local Time) from KCRS Reporting Station
Haze Haze  
Wind Chill: 42°   Ceiling: 200
Heat Index: 45°   Visibility: 1.5mi
Dew Point: 44°   Wind: 6mph
Humidity: 97%   Direction: 70°ENE
Pressure: 30.11"   Gusts: NA
Location:  31.95°N, 96.62°W
Report Text: KCRS 181053Z AUTO 07005KT 1 1/2SM BR OVC002 07/07 A3011 RMK AO2 SLP197 T00720067
Loading
Personal Weather Stations






























Interactive Weather Map New forecast layout! Learn more

10-Day Weather Forecast

Advertisements
Track Severe Weather on mobile